Time;durP1;ratioP1;P1;durP2;ratioP2;P2;SDS_P1;SDS_P2;PMS_P1;PMS_P2;Temp;Humidity;BMP_temperature;BMP_pressure;BME280_temperature;BME280_humidity;BME280_pressure;Samples;Min_cycle;Max_cycle;Signal;HPM_P1;HPM_P2
2022/04/23 00:00:29;;;;;;;;;;;;;;;17.11;63.25;97772.84;2085516;28;19935;-49
2022/04/23 00:01:31;;;;;;;;;;;;;;;17.09;63.23;97764.19;2086368;28;20070;-52
2022/04/23 00:02:32;;;;;;;;;;;;;;;17.10;63.25;97762.31;2087989;28;21373;-49
2022/04/23 00:03:33;;;;;;;;;;;;;;;17.10;63.19;97762.31;2090628;28;19948;-52
2022/04/23 00:04:36;;;;;;;;;;;;;;;17.09;63.10;97764.19;2086797;28;19928;-47
2022/04/23 00:05:36;;;;;;;;;;;;;;;17.07;63.20;97768.94;2087478;28;19946;-49
2022/04/23 00:06:38;;;;;;;;;;;;;;;17.08;63.19;97767.91;2085556;28;19921;-52
2022/04/23 00:07:39;;;;;;;;;;;;;;;17.07;63.14;97773.47;2088398;28;20824;-53
2022/04/23 00:08:40;;;;;;;;;;;;;;;17.08;63.28;97773.28;2089051;28;19925;-48
2022/04/23 00:09:41;;;;;;;;;;;;;;;17.07;62.94;97776.97;2089006;28;20402;-49
2022/04/23 00:10:42;;;;;;;;;;;;;;;17.09;63.03;97779.44;2088866;28;19920;-47
2022/04/23 00:11:43;;;;;;;;;;;;;;;17.08;63.16;97786.66;2088015;28;19925;-49
2022/04/23 00:12:46;;;;;;;;;;;;;;;17.07;63.10;97782.31;2087547;28;20461;-49
2022/04/23 00:13:46;;;;;;;;;;;;;;;17.07;63.03;97781.50;2088448;28;19920;-50
2022/04/23 00:14:48;;;;;;;;;;;;;;;17.08;63.08;97783.19;2084640;28;19924;-48
2022/04/23 00:15:48;;;;;;;;;;;;;;;17.06;63.11;97769.97;2086748;28;20738;-48
2022/04/23 00:16:50;;;;;;;;;;;;;;;17.07;63.23;97782.31;2089104;28;19928;-49
2022/04/23 00:17:51;;;;;;;;;;;;;;;17.07;63.08;97778.84;2086128;28;19928;-51
2022/04/23 00:18:52;;;;;;;;;;;;;;;17.07;63.23;97784.19;2086905;28;19931;-53
2022/04/23 00:19:54;;;;;;;;;;;;;;;17.05;63.14;97786.25;2088243;28;19928;-49
2022/04/23 00:20:56;;;;;;;;;;;;;;;17.06;63.29;97783.38;2087699;28;19924;-49
2022/04/23 00:21:56;;;;;;;;;;;;;;;17.06;63.13;97780.69;2087928;28;19924;-49
2022/04/23 00:22:59;;;;;;;;;;;;;;;17.07;63.02;97776.16;2086386;28;20331;-48
2022/04/23 00:24:01;;;;;;;;;;;;;;;17.07;63.08;97781.50;2085414;28;20532;-47
2022/04/23 00:25:01;;;;;;;;;;;;;;;17.08;62.92;97775.13;2087200;28;19954;-48
2022/04/23 00:26:03;;;;;;;;;;;;;;;17.07;63.02;97776.16;2086109;28;19957;-48
2022/04/23 00:27:03;;;;;;;;;;;;;;;17.07;63.04;97776.16;2084149;28;19928;-49
2022/04/23 00:28:05;;;;;;;;;;;;;;;17.04;62.99;97779.25;2088125;28;20908;-48
2022/04/23 00:29:06;;;;;;;;;;;;;;;17.03;63.19;97780.31;2086035;28;20600;-56
2022/04/23 00:30:08;;;;;;;;;;;;;;;17.04;63.12;97784.63;2085202;28;19921;-51
2022/04/23 00:31:09;;;;;;;;;;;;;;;17.05;63.11;97789.78;2083994;28;20307;-48
2022/04/23 00:32:10;;;;;;;;;;;;;;;17.04;62.98;97793.47;2086444;28;19944;-48
2022/04/23 00:33:12;;;;;;;;;;;;;;;17.04;63.04;97784.63;2087828;28;20351;-49
2022/04/23 00:34:12;;;;;;;;;;;;;;;17.03;63.17;97791.84;2086221;28;20412;-47
2022/04/23 00:35:15;;;;;;;;;;;;;;;17.04;63.11;97795.34;2087921;28;19934;-48
2022/04/23 00:36:16;;;;;;;;;;;;;;;17.02;63.15;97790.22;2087810;28;20550;-50
2022/04/23 00:37:17;;;;;;;;;;;;;;;17.04;63.14;97792.66;2089082;28;20006;-51
2022/04/23 00:38:18;;;;;;;;;;;;;;;17.03;63.05;97794.53;2088560;28;19924;-48
2022/04/23 00:39:19;;;;;;;;;;;;;;;17.04;63.12;97798.00;2088540;28;20003;-48
2022/04/23 00:40:24;;;;;;;;;;;;;;;17.02;63.18;97802.75;2083945;28;20012;-48
2022/04/23 00:42:45;;;;;;;;;;;;;;;17.02;63.15;97790.22;2088942;28;19925;-47
2022/04/23 00:43:48;;;;;;;;;;;;;;;17.02;63.11;97795.56;2083118;28;20006;-50
2022/04/23 00:44:49;;;;;;;;;;;;;;;17.02;63.07;97794.72;2086701;28;20027;-47
2022/04/23 00:45:50;;;;;;;;;;;;;;;17.02;62.95;97790.22;2086756;28;20361;-47
2022/04/23 00:46:51;;;;;;;;;;;;;;;17.03;62.99;97789.16;2086645;28;19925;-49
2022/04/23 00:47:52;;;;;;;;;;;;;;;17.02;63.08;97792.03;2086512;28;19920;-50
2022/04/23 00:48:53;;;;;;;;;;;;;;;17.01;63.08;97788.53;2088438;28;19927;-48
2022/04/23 00:49:54;;;;;;;;;;;;;;;16.99;63.03;97790.59;2089301;28;19924;-48
2022/04/23 00:50:58;;;;;;;;;;;;;;;17.01;63.00;97796.59;2086041;28;19927;-48
2022/04/23 00:51:58;;;;;;;;;;;;;;;17.00;63.10;97792.28;2087417;28;19920;-48
2022/04/23 00:53:02;;;;;;;;;;;;;;;16.99;63.01;97793.28;2087866;28;20939;-49
2022/04/23 00:54:04;;;;;;;;;;;;;;;16.98;63.11;97795.16;2088691;28;19925;-49
2022/04/23 00:55:06;;;;;;;;;;;;;;;17.00;63.00;97797.63;2088064;28;19951;-49
2022/04/23 00:56:07;;;;;;;;;;;;;;;17.02;62.95;97797.41;2086569;28;19920;-49
2022/04/23 00:57:09;;;;;;;;;;;;;;;17.02;62.89;97800.94;2087706;28;19921;-48
2022/04/23 00:58:10;;;;;;;;;;;;;;;16.99;63.01;97795.97;2088594;28;19928;-48
2022/04/23 00:59:13;;;;;;;;;;;;;;;17.00;63.04;97792.28;2082016;28;20014;-52
2022/04/23 01:00:15;;;;;;;;;;;;;;;17.00;63.02;97794.13;2086836;28;19956;-48
2022/04/23 01:01:18;;;;;;;;;;;;;;;17.00;63.09;97797.63;2083838;28;19929;-48
2022/04/23 01:02:22;;;;;;;;;;;;;;;16.99;62.98;97795.97;2086207;28;19964;-50
2022/04/23 01:03:23;;;;;;;;;;;;;;;16.98;62.93;97791.66;2085566;28;20366;-52
2022/04/23 01:04:24;;;;;;;;;;;;;;;17.00;63.06;97797.63;2089692;28;19959;-49
2022/04/23 01:05:26;;;;;;;;;;;;;;;17.00;62.98;97805.66;2086419;28;19933;-50
2022/04/23 01:06:29;;;;;;;;;;;;;;;17.01;62.95;97806.47;2087273;28;19936;-49
2022/04/23 01:07:30;;;;;;;;;;;;;;;17.00;62.86;97800.31;2087159;28;20706;-52
2022/04/23 01:08:31;;;;;;;;;;;;;;;17.00;62.91;97811.03;2087968;28;19924;-52
2022/04/23 01:09:32;;;;;;;;;;;;;;;16.98;62.95;97805.06;2085745;28;19929;-51
2022/04/23 01:10:34;;;;;;;;;;;;;;;17.01;62.87;97809.97;2087638;28;20323;-50
2022/04/23 01:11:35;;;;;;;;;;;;;;;17.03;62.82;97817.81;2086823;28;19929;-49
2022/04/23 01:12:37;;;;;;;;;;;;;;;17.01;62.90;97809.16;2086243;28;20019;-51
2022/04/23 01:13:37;;;;;;;;;;;;;;;16.99;62.99;97812.03;2086752;28;19950;-53
2022/04/23 01:14:53;;;;;;;;;;;;;;;16.99;62.86;97806.69;2085260;28;19963;-52
2022/04/23 01:15:57;;;;;;;;;;;;;;;17.00;62.93;97813.69;2086269;28;19950;-53
2022/04/23 01:16:59;;;;;;;;;;;;;;;16.97;62.92;97812.28;2087293;28;20519;-51
2022/04/23 01:17:59;;;;;;;;;;;;;;;16.97;62.94;97809.59;2087732;28;20437;-52
2022/04/23 01:19:01;;;;;;;;;;;;;;;16.98;62.91;97811.22;2089277;28;19920;-47
2022/04/23 01:20:05;;;;;;;;;;;;;;;16.97;62.84;97806.09;2086456;28;20390;-52
2022/04/23 01:21:09;;;;;;;;;;;;;;;16.98;62.91;97810.41;2088065;28;19925;-51
2022/04/23 01:22:10;;;;;;;;;;;;;;;16.97;62.97;97803.41;2085470;28;20011;-51
2022/04/23 01:23:11;;;;;;;;;;;;;;;16.97;62.93;97803.41;2088807;28;19925;-49
2022/04/23 01:24:14;;;;;;;;;;;;;;;16.96;62.89;97796.41;2087300;28;19921;-54
2022/04/23 01:25:15;;;;;;;;;;;;;;;16.98;62.91;97805.06;2087868;28;19924;-51
2022/04/23 01:26:23;;;;;;;;;;;;;;;16.97;62.90;97803.41;2086217;28;19928;-50
2022/04/23 01:27:25;;;;;;;;;;;;;;;16.96;62.85;97801.75;2087705;28;19925;-45
2022/04/23 01:28:28;;;;;;;;;;;;;;;16.96;62.88;97802.56;2084651;28;20477;-49
2022/04/23 01:29:29;;;;;;;;;;;;;;;16.95;62.90;97802.81;2082583;28;19936;-50
2022/04/23 01:30:30;;;;;;;;;;;;;;;16.95;62.97;97805.47;2084402;28;19924;-51
2022/04/23 01:31:32;;;;;;;;;;;;;;;16.96;62.85;97802.56;2087465;28;19925;-51
2022/04/23 01:32:32;;;;;;;;;;;;;;;16.97;62.86;97808.78;2087297;28;19989;-46
2022/04/23 01:33:34;;;;;;;;;;;;;;;16.96;62.87;97812.47;2088446;28;20358;-52
2022/04/23 01:34:35;;;;;;;;;;;;;;;16.94;63.00;97806.53;2088650;28;19942;-49
2022/04/23 01:35:38;;;;;;;;;;;;;;;16.94;62.83;97810.03;2089117;28;20359;-50
2022/04/23 01:36:38;;;;;;;;;;;;;;;16.95;62.83;97805.47;2087778;28;20015;-47
2022/04/23 01:37:40;;;;;;;;;;;;;;;16.93;62.91;97820.94;2089192;28;20356;-53
2022/04/23 01:38:41;;;;;;;;;;;;;;;16.93;63.07;97820.94;2085497;28;19977;-49
2022/04/23 01:39:44;;;;;;;;;;;;;;;16.93;62.90;97828.97;2086039;28;20343;-48
2022/04/23 01:40:44;;;;;;;;;;;;;;;16.93;62.90;97826.28;2088141;28;20847;-49
2022/04/23 01:41:47;;;;;;;;;;;;;;;16.93;62.90;97815.56;2088496;28;19954;-49
2022/04/23 01:42:47;;;;;;;;;;;;;;;16.93;62.84;97823.63;2087349;28;19931;-49
2022/04/23 01:43:49;;;;;;;;;;;;;;;16.94;62.95;97825.28;2082721;28;19924;-51
2022/04/23 01:44:50;;;;;;;;;;;;;;;16.94;62.86;97815.38;2082406;28;19928;-52
2022/04/23 01:45:52;;;;;;;;;;;;;;;16.95;62.86;97821.56;2083656;28;19932;-48
2022/04/23 01:46:52;;;;;;;;;;;;;;;16.92;62.83;97825.47;2086780;28;19925;-49
2022/04/23 01:47:54;;;;;;;;;;;;;;;16.92;62.86;97825.47;2085192;28;20585;-51
2022/04/23 01:48:54;;;;;;;;;;;;;;;16.92;62.84;97816.63;2085862;28;20560;-51
2022/04/23 01:49:56;;;;;;;;;;;;;;;16.94;62.89;97822.59;2086639;28;19924;-52
2022/04/23 01:50:58;;;;;;;;;;;;;;;16.95;62.83;97824.22;2087609;28;19955;-49
2022/04/23 01:52:00;;;;;;;;;;;;;;;16.91;62.83;97818.47;2084526;28;20497;-51
2022/04/23 01:53:01;;;;;;;;;;;;;;;16.94;62.84;97814.56;2086570;28;19964;-48
2022/04/23 01:54:03;;;;;;;;;;;;;;;16.94;62.84;97817.25;2087479;28;19924;-51
2022/04/23 01:55:04;;;;;;;;;;;;;;;16.94;62.80;97825.28;2085649;28;19925;-48
2022/04/23 01:56:05;;;;;;;;;;;;;;;16.92;62.83;97824.66;2084970;28;19985;-53
2022/04/23 01:57:06;;;;;;;;;;;;;;;16.91;62.84;97826.53;2085397;28;20859;-51
2022/04/23 01:58:08;;;;;;;;;;;;;;;16.90;62.98;97829.41;2083416;28;19931;-51
2022/04/23 01:59:08;;;;;;;;;;;;;;;16.89;62.86;97828.56;2082970;28;19924;-52
2022/04/23 02:00:13;;;;;;;;;;;;;;;16.93;62.90;97834.31;2072207;28;20807;-51
2022/04/23 02:01:14;;;;;;;;;;;;;;;16.92;62.94;97830.00;2084661;28;20136;-54
2022/04/23 02:02:15;;;;;;;;;;;;;;;16.92;62.85;97832.69;2085226;28;20538;-53
2022/04/23 02:03:16;;;;;;;;;;;;;;;16.90;62.86;97832.88;2088010;28;19929;-51
2022/04/23 02:04:17;;;;;;;;;;;;;;;16.90;62.84;97829.41;2084330;28;19936;-52
2022/04/23 02:05:18;;;;;;;;;;;;;;;16.90;62.93;97829.41;2086679;28;19921;-50
2022/04/23 02:06:21;;;;;;;;;;;;;;;16.91;62.74;97823.84;2078889;28;19928;-47
2022/04/23 02:07:21;;;;;;;;;;;;;;;16.91;63.03;97820.31;2081369;28;20359;-47
2022/04/23 02:08:23;;;;;;;;;;;;;;;16.92;62.88;97821.97;2084639;28;19925;-49
2022/04/23 02:09:24;;;;;;;;;;;;;;;16.91;62.73;97820.31;2087471;28;20023;-50
2022/04/23 02:10:25;;;;;;;;;;;;;;;16.91;62.71;97817.63;2085833;28;20496;-48
2022/04/23 02:11:26;;;;;;;;;;;;;;;16.92;62.77;97816.63;2086162;28;19936;-48
2022/04/23 02:12:27;;;;;;;;;;;;;;;16.91;62.83;97820.31;2087190;28;19932;-51
2022/04/23 02:13:28;;;;;;;;;;;;;;;16.88;62.83;97812.72;2085227;28;20015;-51
2022/04/23 02:14:29;;;;;;;;;;;;;;;16.87;62.92;97819.09;2084093;28;19932;-51
2022/04/23 02:15:30;;;;;;;;;;;;;;;16.88;62.85;97821.59;2085187;28;20022;-51
2022/04/23 02:16:32;;;;;;;;;;;;;;;16.90;62.76;97826.72;2085796;28;19921;-49
2022/04/23 02:17:33;;;;;;;;;;;;;;;16.91;62.82;97821.16;2083775;28;19924;-51
2022/04/23 02:18:37;;;;;;;;;;;;;;;16.93;62.74;97828.97;2085549;28;19974;-48
2022/04/23 02:19:38;;;;;;;;;;;;;;;16.91;62.69;97829.19;2077728;28;19936;-52
2022/04/23 02:20:39;;;;;;;;;;;;;;;16.89;62.86;97828.56;2086628;28;19967;-48
2022/04/23 02:21:41;;;;;;;;;;;;;;;16.88;62.87;97828.78;2087719;28;19920;-51
2022/04/23 02:22:44;;;;;;;;;;;;;;;16.86;62.90;97831.69;2088455;28;20463;-52
2022/04/23 02:23:45;;;;;;;;;;;;;;;16.88;62.82;97832.31;2087064;28;19925;-50
2022/04/23 02:24:46;;;;;;;;;;;;;;;16.89;62.85;97838.47;2085963;28;19956;-50
2022/04/23 02:25:47;;;;;;;;;;;;;;;16.87;62.81;97829.81;2082237;28;19920;-52
2022/04/23 02:26:48;;;;;;;;;;;;;;;16.86;62.78;97836.22;2082856;28;20287;-54
2022/04/23 02:27:49;;;;;;;;;;;;;;;16.85;62.82;97838.06;2084974;28;19921;-50
2022/04/23 02:28:51;;;;;;;;;;;;;;;16.85;62.88;97838.06;2085652;28;19924;-48
2022/04/23 02:29:52;;;;;;;;;;;;;;;16.87;62.73;97835.19;2082780;28;20370;-54
2022/04/23 02:30:54;;;;;;;;;;;;;;;16.85;62.88;97830.03;2086695;28;19920;-51
2022/04/23 02:31:54;;;;;;;;;;;;;;;16.85;62.85;97835.38;2086657;28;19924;-51
2022/04/23 02:32:56;;;;;;;;;;;;;;;16.84;62.90;97836.41;2087243;28;20443;-51
2022/04/23 02:33:57;;;;;;;;;;;;;;;16.86;62.86;97834.38;2086204;28;19924;-49
2022/04/23 02:34:58;;;;;;;;;;;;;;;16.85;63.00;97831.88;2086869;28;19924;-47
2022/04/23 02:35:59;;;;;;;;;;;;;;;16.84;62.81;97828.38;2087014;28;19949;-51
2022/04/23 02:37:02;;;;;;;;;;;;;;;16.85;62.79;97832.69;2088367;28;19959;-50
2022/04/23 02:38:03;;;;;;;;;;;;;;;16.85;62.86;97826.53;2083600;28;19924;-50
2022/04/23 02:39:04;;;;;;;;;;;;;;;16.87;62.76;97827.16;2082937;28;20553;-52
2022/04/23 02:40:06;;;;;;;;;;;;;;;16.88;62.72;97826.94;2085035;28;19986;-51
2022/04/23 02:41:07;;;;;;;;;;;;;;;16.85;62.88;97830.03;2087810;28;20001;-53
2022/04/23 02:42:09;;;;;;;;;;;;;;;16.85;62.85;97826.53;2086093;28;19924;-49
2022/04/23 02:43:12;;;;;;;;;;;;;;;16.86;62.74;97829.00;2084009;28;20015;-51
2022/04/23 02:44:15;;;;;;;;;;;;;;;16.87;62.86;97833.31;2084016;28;19951;-49
2022/04/23 02:45:16;;;;;;;;;;;;;;;16.86;62.71;97834.38;2086332;28;19939;-51
2022/04/23 02:46:17;;;;;;;;;;;;;;;16.87;62.72;97833.31;2086142;28;19935;-53
2022/04/23 02:47:19;;;;;;;;;;;;;;;16.87;62.61;97836.00;2087789;28;19960;-51
2022/04/23 02:48:19;;;;;;;;;;;;;;;16.85;62.66;97840.72;2086285;28;19924;-50
2022/04/23 02:49:22;;;;;;;;;;;;;;;16.83;62.91;97832.09;2086228;28;19986;-54
2022/04/23 02:50:25;;;;;;;;;;;;;;;16.85;62.71;97834.56;2080196;28;19929;-49
2022/04/23 02:51:27;;;;;;;;;;;;;;;16.84;62.98;97835.59;2084588;28;21055;-50
2022/04/23 02:52:29;;;;;;;;;;;;;;;16.84;62.77;97835.59;2084674;28;19928;-47
2022/04/23 02:53:30;;;;;;;;;;;;;;;16.85;62.65;97838.06;2086689;28;19985;-47
2022/04/23 02:54:31;;;;;;;;;;;;;;;16.83;62.68;97839.31;2086059;28;20682;-51
2022/04/23 02:55:33;;;;;;;;;;;;;;;16.83;62.84;97828.63;2086880;28;19979;-47
2022/04/23 02:56:34;;;;;;;;;;;;;;;16.82;62.78;97834.97;2086005;28;20298;-51
2022/04/23 02:57:36;;;;;;;;;;;;;;;16.81;62.81;97839.53;2085629;28;21073;-49
2022/04/23 02:58:37;;;;;;;;;;;;;;;16.82;62.91;97837.66;2082816;28;20516;-52
2022/04/23 02:59:39;;;;;;;;;;;;;;;16.84;62.67;97835.59;2082265;28;19935;-48
2022/04/23 03:00:41;;;;;;;;;;;;;;;16.84;62.73;97836.41;2085829;28;20065;-48
2022/04/23 03:01:42;;;;;;;;;;;;;;;16.83;62.92;97825.94;2086078;28;20417;-54
2022/04/23 03:02:44;;;;;;;;;;;;;;;16.81;62.78;97828.81;2086413;28;19924;-54
2022/04/23 03:03:46;;;;;;;;;;;;;;;16.82;62.87;97826.94;2088349;28;19929;-49
2022/04/23 03:04:47;;;;;;;;;;;;;;;16.80;62.88;97823.66;2085370;28;19924;-52
2022/04/23 03:05:49;;;;;;;;;;;;;;;16.80;62.83;97829.00;2085605;28;19951;-52
2022/04/23 03:06:49;;;;;;;;;;;;;;;16.81;62.74;97828.81;2086690;28;19927;-48
2022/04/23 03:07:53;;;;;;;;;;;;;;;16.80;62.77;97829.00;2085128;28;20156;-49
2022/04/23 03:08:53;;;;;;;;;;;;;;;16.79;62.78;97833.56;2085383;28;19925;-48
2022/04/23 03:09:55;;;;;;;;;;;;;;;16.81;62.82;97830.69;2085621;28;19962;-50
2022/04/23 03:10:55;;;;;;;;;;;;;;;16.80;62.77;97829.00;2084991;28;19924;-46
2022/04/23 03:11:57;;;;;;;;;;;;;;;16.79;62.74;97832.72;2084817;28;19925;-47
2022/04/23 03:12:57;;;;;;;;;;;;;;;16.79;62.88;97830.06;2083321;28;19932;-45
2022/04/23 03:13:59;;;;;;;;;;;;;;;16.80;62.79;97829.00;2074523;28;19932;-48
2022/04/23 03:15:00;;;;;;;;;;;;;;;16.79;62.90;97828.19;2084490;28;20419;-46
2022/04/23 03:16:01;;;;;;;;;;;;;;;16.80;62.77;97823.66;2085280;28;19978;-50
2022/04/23 03:17:02;;;;;;;;;;;;;;;16.80;62.81;97826.34;2087231;28;20067;-49
2022/04/23 03:18:05;;;;;;;;;;;;;;;16.81;62.81;97836.84;2086554;28;19932;-48
2022/04/23 03:19:05;;;;;;;;;;;;;;;16.79;62.78;97830.06;2087611;28;19924;-46
2022/04/23 03:20:09;;;;;;;;;;;;;;;16.80;62.68;97826.34;2080891;28;19936;-48
2022/04/23 03:21:10;;;;;;;;;;;;;;;16.79;62.80;97825.50;2086417;28;20452;-47
2022/04/23 03:22:13;;;;;;;;;;;;;;;16.79;62.80;97822.03;2085947;28;19930;-50
2022/04/23 03:23:15;;;;;;;;;;;;;;;16.79;62.73;97820.16;2089518;28;19921;-48
2022/04/23 03:24:17;;;;;;;;;;;;;;;16.79;62.70;97822.03;2088169;28;19928;-48
2022/04/23 03:25:17;;;;;;;;;;;;;;;16.79;62.82;97832.72;2089818;28;19969;-46
2022/04/23 03:26:19;;;;;;;;;;;;;;;16.76;62.72;97820.56;2088184;28;19974;-49
2022/04/23 03:27:19;;;;;;;;;;;;;;;16.78;62.85;97833.78;2085561;28;19929;-48
2022/04/23 03:28:22;;;;;;;;;;;;;;;16.77;62.82;97824.94;2088686;28;19947;-50
2022/04/23 03:29:22;;;;;;;;;;;;;;;16.78;62.72;97829.25;2084884;28;19925;-49
2022/04/23 03:30:24;;;;;;;;;;;;;;;16.79;62.74;97825.50;2085312;28;19924;-47
2022/04/23 03:31:24;;;;;;;;;;;;;;;16.79;62.70;97832.72;2080909;28;20070;-47
2022/04/23 03:32:26;;;;;;;;;;;;;;;16.80;62.72;97831.69;2087901;28;19939;-48
2022/04/23 03:33:27;;;;;;;;;;;;;;;16.78;62.74;97831.09;2086950;28;19928;-45
2022/04/23 03:34:28;;;;;;;;;;;;;;;16.78;62.73;97825.75;2085801;28;19924;-46
2022/04/23 03:35:29;;;;;;;;;;;;;;;16.78;62.64;97825.75;2087582;28;20481;-49
2022/04/23 03:36:30;;;;;;;;;;;;;;;16.79;62.79;97827.38;2087802;28;19927;-45
2022/04/23 03:37:31;;;;;;;;;;;;;;;16.79;62.70;97832.72;2086945;28;20992;-48
2022/04/23 03:38:35;;;;;;;;;;;;;;;16.80;62.70;97831.69;2088178;28;19924;-46
2022/04/23 03:39:36;;;;;;;;;;;;;;;16.78;62.73;97834.59;2087318;28;19929;-47
2022/04/23 03:40:38;;;;;;;;;;;;;;;16.77;62.71;97835.63;2086763;28;20013;-49
2022/04/23 03:41:38;;;;;;;;;;;;;;;16.76;62.78;97836.63;2087416;28;19920;-48
2022/04/23 03:42:41;;;;;;;;;;;;;;;16.75;62.77;97835.81;2084051;28;22189;-49
2022/04/23 03:43:41;;;;;;;;;;;;;;;16.77;62.80;97841.00;2087091;28;19924;-48
2022/04/23 03:44:43;;;;;;;;;;;;;;;16.74;62.81;97831.50;2088558;28;19920;-45
2022/04/23 03:45:43;;;;;;;;;;;;;;;16.76;62.72;97839.28;2086338;28;19969;-48
2022/04/23 03:46:45;;;;;;;;;;;;;;;16.75;62.67;97837.66;2088381;28;20320;-47
2022/04/23 03:47:46;;;;;;;;;;;;;;;16.74;62.70;97842.22;2088845;28;19920;-48
2022/04/23 03:48:47;;;;;;;;;;;;;;;16.73;62.74;97839.72;2088340;28;19939;-48
2022/04/23 03:49:49;;;;;;;;;;;;;;;16.72;62.78;97836.22;2087853;28;20485;-48
2022/04/23 03:50:49;;;;;;;;;;;;;;;16.74;62.74;97846.72;2087708;28;20379;-48
2022/04/23 03:51:51;;;;;;;;;;;;;;;16.74;62.83;97846.72;2087967;28;19931;-49
2022/04/23 03:52:51;;;;;;;;;;;;;;;16.74;62.86;97852.91;2084029;28;20348;-48
2022/04/23 03:53:55;;;;;;;;;;;;;;;16.74;62.78;97849.38;2085241;28;19932;-48
2022/04/23 03:54:55;;;;;;;;;;;;;;;16.74;62.69;97846.72;2086876;28;20378;-49
2022/04/23 03:55:57;;;;;;;;;;;;;;;16.74;62.83;97849.38;2087085;28;19924;-45
2022/04/23 03:56:57;;;;;;;;;;;;;;;16.73;62.78;97856.59;2087377;28;19920;-47
2022/04/23 03:57:59;;;;;;;;;;;;;;;16.74;62.79;97852.91;2084956;28;19931;-47
2022/04/23 03:59:00;;;;;;;;;;;;;;;16.75;62.77;97851.06;2085046;28;19931;-48
2022/04/23 04:00:04;;;;;;;;;;;;;;;16.74;62.64;97852.91;2083609;28;19920;-48
2022/04/23 04:01:05;;;;;;;;;;;;;;;16.75;62.69;97854.56;2089014;28;19982;-50
2022/04/23 04:02:06;;;;;;;;;;;;;;;16.75;62.64;97865.25;2084260;28;20286;-49
2022/04/23 04:03:07;;;;;;;;;;;;;;;16.75;62.62;97865.25;2088535;28;20055;-47
2022/04/23 04:04:08;;;;;;;;;;;;;;;16.75;62.64;97861.75;2089532;28;19928;-48
2022/04/23 04:05:10;;;;;;;;;;;;;;;16.75;62.76;97870.63;2087319;28;20399;-51
2022/04/23 04:06:11;;;;;;;;;;;;;;;16.75;62.71;97870.63;2087182;28;19977;-48
2022/04/23 04:07:18;;;;;;;;;;;;;;;16.73;62.70;97870.00;2089142;28;20360;-49
2022/04/23 04:08:18;;;;;;;;;;;;;;;16.74;62.65;97874.34;2085429;28;19932;-46
2022/04/23 04:09:21;;;;;;;;;;;;;;;16.74;62.76;97870.81;2087319;28;19975;-48
2022/04/23 04:10:22;;;;;;;;;;;;;;;16.72;62.81;97876.41;2084358;28;19935;-50
2022/04/23 04:11:24;;;;;;;;;;;;;;;16.73;62.68;97875.34;2089283;28;19974;-47
2022/04/23 04:12:24;;;;;;;;;;;;;;;16.72;62.68;97873.72;2087529;28;19924;-51
2022/04/23 04:13:26;;;;;;;;;;;;;;;16.73;62.60;97878.03;2085853;28;19920;-49
2022/04/23 04:14:27;;;;;;;;;;;;;;;16.73;62.65;97877.22;2086820;28;19924;-47
2022/04/23 04:15:29;;;;;;;;;;;;;;;16.71;62.74;97876.59;2084314;28;20019;-46
2022/04/23 04:16:29;;;;;;;;;;;;;;;16.72;62.80;97881.75;2087039;28;19924;-45
2022/04/23 04:17:31;;;;;;;;;;;;;;;16.72;62.78;97871.03;2088982;28;19925;-48
2022/04/23 04:18:31;;;;;;;;;;;;;;;16.72;62.83;97865.69;2087866;28;20383;-47
2022/04/23 04:19:33;;;;;;;;;;;;;;;16.73;62.66;97863.81;2086470;28;19975;-49
2022/04/23 04:20:35;;;;;;;;;;;;;;;16.72;62.80;97856.84;2087701;28;19928;-50
2022/04/23 04:21:36;;;;;;;;;;;;;;;16.71;62.70;97853.31;2084852;28;21360;-48
2022/04/23 04:22:37;;;;;;;;;;;;;;;16.72;62.64;97860.31;2086638;28;19925;-47
2022/04/23 04:23:39;;;;;;;;;;;;;;;16.72;62.63;97852.28;2086804;28;19924;-47
2022/04/23 04:24:42;;;;;;;;;;;;;;;16.71;62.69;97852.50;2088496;28;19928;-47
2022/04/23 04:25:43;;;;;;;;;;;;;;;16.69;62.69;97855.41;2088913;28;20390;-48
2022/04/23 04:26:46;;;;;;;;;;;;;;;16.70;62.81;97848.19;2088993;28;20014;-51
2022/04/23 04:27:47;;;;;;;;;;;;;;;16.71;62.77;97855.97;2086097;28;19924;-49
2022/04/23 04:28:49;;;;;;;;;;;;;;;16.72;62.63;97848.81;2084394;28;19928;-47
2022/04/23 04:29:49;;;;;;;;;;;;;;;16.72;62.66;97848.81;2087109;28;19924;-49
2022/04/23 04:32:09;;;;;;;;;;;;;;;16.71;62.69;97853.31;2088298;28;19992;-49
2022/04/23 04:33:10;;;;;;;;;;;;;;;16.70;62.53;97851.69;2088748;28;19931;-47
2022/04/23 04:34:12;;;;;;;;;;;;;;;16.72;62.60;97859.50;2088111;28;19924;-46
2022/04/23 04:35:13;;;;;;;;;;;;;;;16.71;62.71;97860.53;2088057;28;19929;-50
2022/04/23 04:36:14;;;;;;;;;;;;;;;16.70;62.65;97854.34;2088222;28;19931;-50
2022/04/23 04:37:15;;;;;;;;;;;;;;;16.73;62.59;97856.59;2089350;28;19947;-51
2022/04/23 04:38:16;;;;;;;;;;;;;;;16.72;62.73;97856.84;2077612;28;20055;-49
2022/04/23 04:39:18;;;;;;;;;;;;;;;16.70;62.70;97861.56;2083467;28;21020;-48
2022/04/23 04:40:21;;;;;;;;;;;;;;;16.71;62.71;97857.84;2087805;28;19961;-49
2022/04/23 04:41:22;;;;;;;;;;;;;;;16.73;62.60;97864.63;2088190;28;19924;-47
2022/04/23 04:42:23;;;;;;;;;;;;;;;16.72;62.58;97865.69;2087389;28;19924;-49
2022/04/23 04:43:24;;;;;;;;;;;;;;;16.70;62.60;97867.75;2088068;28;20367;-47
2022/04/23 04:44:25;;;;;;;;;;;;;;;16.69;62.73;97865.28;2086370;28;20007;-51
2022/04/23 04:45:26;;;;;;;;;;;;;;;16.71;62.71;97863.19;2091134;28;19928;-48
2022/04/23 04:46:27;;;;;;;;;;;;;;;16.70;62.58;97865.06;2089855;28;19924;-48
2022/04/23 04:47:29;;;;;;;;;;;;;;;16.72;62.67;97864.88;2082613;28;19928;-48
2022/04/23 04:48:30;;;;;;;;;;;;;;;16.69;62.64;97860.75;2086403;28;20018;-48
2022/04/23 04:49:31;;;;;;;;;;;;;;;16.71;62.59;97866.69;2089451;28;20604;-48
2022/04/23 04:50:32;;;;;;;;;;;;;;;16.69;62.59;97873.31;2089623;28;19931;-50
2022/04/23 04:51:35;;;;;;;;;;;;;;;16.70;62.63;97872.28;2089070;28;19930;-48
2022/04/23 04:52:35;;;;;;;;;;;;;;;16.70;62.64;97866.91;2088838;28;19998;-47
2022/04/23 04:53:37;;;;;;;;;;;;;;;16.69;62.73;97879.50;2087210;28;19977;-48
2022/04/23 04:54:37;;;;;;;;;;;;;;;16.69;62.72;97870.66;2089420;28;19928;-50
2022/04/23 04:55:41;;;;;;;;;;;;;;;16.68;62.63;97872.47;2087852;28;19924;-48
2022/04/23 04:56:42;;;;;;;;;;;;;;;16.69;62.71;97873.31;2088068;28;20396;-51
2022/04/23 04:57:43;;;;;;;;;;;;;;;16.67;62.64;97878.88;2088893;28;19929;-47
2022/04/23 04:58:44;;;;;;;;;;;;;;;16.68;62.71;97872.47;2084053;28;19920;-48
2022/04/23 04:59:45;;;;;;;;;;;;;;;16.70;62.62;97869.59;2086097;28;19925;-46
2022/04/23 05:00:46;;;;;;;;;;;;;;;16.66;62.60;97869.19;2085466;28;19953;-48
2022/04/23 05:01:47;;;;;;;;;;;;;;;16.69;62.56;97871.47;2086346;28;20266;-48
2022/04/23 05:02:48;;;;;;;;;;;;;;;16.68;62.62;97869.78;2087122;28;19925;-48
2022/04/23 05:03:50;;;;;;;;;;;;;;;16.66;62.79;97871.03;2088721;28;19920;-48
2022/04/23 05:04:51;;;;;;;;;;;;;;;16.66;62.69;97871.03;2088353;28;20302;-48
2022/04/23 05:05:52;;;;;;;;;;;;;;;16.67;62.72;97873.53;2088068;28;19936;-48
2022/04/23 05:06:53;;;;;;;;;;;;;;;16.67;62.67;97878.06;2086986;28;19944;-50
2022/04/23 05:07:54;;;;;;;;;;;;;;;16.67;62.68;97876.19;2089327;28;20019;-47
2022/04/23 05:08:55;;;;;;;;;;;;;;;16.68;62.59;97877.81;2089225;28;19928;-47
2022/04/23 05:09:56;;;;;;;;;;;;;;;16.69;62.72;97884.84;2089865;28;19928;-49
2022/04/23 05:10:59;;;;;;;;;;;;;;;16.70;62.52;97881.13;2089962;28;19935;-47
2022/04/23 05:12:00;;;;;;;;;;;;;;;16.71;62.50;97881.94;2086267;28;20374;-51
2022/04/23 05:13:01;;;;;;;;;;;;;;;16.73;62.52;97874.53;2087569;28;20368;-50
2022/04/23 05:14:02;;;;;;;;;;;;;;;16.77;62.47;97881.16;2086857;28;20019;-48
2022/04/23 05:15:03;;;;;;;;;;;;;;;16.80;62.38;97879.91;2086299;28;19927;-49
2022/04/23 05:16:06;;;;;;;;;;;;;;;16.84;62.30;97881.13;2088588;28;20031;-50
2022/04/23 05:17:06;;;;;;;;;;;;;;;16.85;62.20;97877.41;2088975;28;19925;-50
2022/04/23 05:18:08;;;;;;;;;;;;;;;16.89;62.06;97871.44;2089629;28;19936;-49
2022/04/23 05:19:08;;;;;;;;;;;;;;;16.94;62.07;97873.50;2085113;28;19920;-48
2022/04/23 05:20:11;;;;;;;;;;;;;;;16.98;61.96;97874.69;2088976;28;20006;-51
2022/04/23 05:21:11;;;;;;;;;;;;;;;17.01;61.76;97868.91;2087223;28;19920;-49
2022/04/23 05:22:13;;;;;;;;;;;;;;;17.06;61.67;97869.09;2089693;28;19924;-48
2022/04/23 05:23:13;;;;;;;;;;;;;;;17.08;61.75;97874.28;2089201;28;19925;-48